Time;durP1;ratioP1;P1;durP2;ratioP2;P2;SDS_P1;SDS_P2;PMS_P1;PMS_P2;Temp;Humidity;BMP_temperature;BMP_pressure;BME280_temperature;BME280_humidity;BME280_pressure;Samples;Min_cycle;Max_cycle;Signal;HPM_P1;HPM_P2
2021/03/10 00:00:11;;;;;;;21.77;14.75;;;2.70;99.90;;;;;;5002195;28;20095;-78
2021/03/10 00:02:37;;;;;;;23.08;13.40;;;2.80;99.90;;;;;;5012663;28;20077;-76
2021/03/10 00:05:05;;;;;;;18.70;12.68;;;2.60;99.90;;;;;;5013989;28;20182;-77
2021/03/10 00:07:31;;;;;;;19.17;12.40;;;2.60;99.90;;;;;;5014155;28;20094;-77
2021/03/10 00:09:57;;;;;;;19.38;12.80;;;2.80;99.90;;;;;;5013325;28;20147;-78
2021/03/10 00:12:22;;;;;;;17.98;12.75;;;3.00;99.90;;;;;;5023609;28;20537;-78
2021/03/10 00:14:48;;;;;;;20.85;12.10;;;3.10;99.90;;;;;;5002041;28;20104;-79
2021/03/10 00:17:14;;;;;;;21.55;13.30;;;3.10;99.90;;;;;;5014546;28;20097;-78
2021/03/10 00:19:41;;;;;;;19.17;12.30;;;3.00;99.90;;;;;;5015601;28;20085;-80
2021/03/10 00:22:10;;;;;;;19.48;13.05;;;3.00;99.90;;;;;;5010981;28;20090;-78
2021/03/10 00:24:36;;;;;;;21.08;13.35;;;3.10;99.90;;;;;;4995891;28;20106;-78
2021/03/10 00:27:02;;;;;;;22.75;12.68;;;2.80;99.90;;;;;;5005830;28;20570;-78
2021/03/10 00:29:28;;;;;;;20.92;13.27;;;2.80;99.90;;;;;;5010540;28;20086;-78
2021/03/10 00:31:53;;;;;;;25.30;15.63;;;2.80;99.90;;;;;;4994942;28;20082;-78
2021/03/10 00:34:19;;;;;;;19.55;13.95;;;2.80;99.90;;;;;;4994169;28;20082;-79
2021/03/10 00:36:51;;;;;;;20.33;13.13;;;2.80;99.90;;;;;;5112362;27;20438;-79
2021/03/10 00:39:17;;;;;;;22.23;13.35;;;2.80;99.90;;;;;;5084700;28;20110;-79
2021/03/10 00:41:43;;;;;;;20.40;13.45;;;2.80;99.90;;;;;;5108230;27;20490;-79
2021/03/10 00:44:08;;;;;;;24.65;14.68;;;2.70;99.90;;;;;;5079273;28;20077;-78
2021/03/10 00:46:34;;;;;;;23.17;14.45;;;2.80;99.90;;;;;;5082962;28;20105;-78
2021/03/10 00:49:00;;;;;;;23.77;14.98;;;2.80;99.90;;;;;;5075408;28;20081;-78
2021/03/10 00:51:25;;;;;;;24.80;14.10;;;2.60;99.90;;;;;;5105423;28;20108;-79
2021/03/10 00:53:51;;;;;;;23.08;13.77;;;2.50;99.90;;;;;;5087099;28;20084;-78
2021/03/10 00:56:17;;;;;;;23.13;15.20;;;2.50;99.90;;;;;;5088798;28;20105;-78
2021/03/10 00:58:42;;;;;;;22.13;14.82;;;2.60;99.90;;;;;;5083245;28;20108;-78
2021/03/10 01:01:09;;;;;;;21.08;13.77;;;2.60;99.90;;;;;;5073729;28;20077;-79
2021/03/10 01:03:34;;;;;;;28.67;15.15;;;2.50;99.90;;;;;;5068711;28;20088;-79
2021/03/10 01:06:00;;;;;;;24.70;14.02;;;2.40;99.90;;;;;;5073179;28;20478;-79
2021/03/10 01:08:26;;;;;;;23.77;16.00;;;2.40;99.90;;;;;;5071015;28;20458;-79
2021/03/10 01:10:51;;;;;;;24.15;14.40;;;2.50;99.90;;;;;;5083247;28;20089;-79
2021/03/10 01:13:17;;;;;;;20.45;13.63;;;2.50;99.90;;;;;;5083537;28;20081;-78
2021/03/10 01:15:43;;;;;;;23.02;14.25;;;2.60;99.90;;;;;;5076375;28;20617;-78
2021/03/10 01:18:09;;;;;;;23.35;15.13;;;2.70;99.90;;;;;;5066719;28;20141;-79
2021/03/10 01:20:34;;;;;;;24.00;15.52;;;2.70;99.90;;;;;;5069724;28;20120;-79
2021/03/10 01:23:00;;;;;;;23.23;15.40;;;2.70;99.90;;;;;;5109724;27;20127;-78
2021/03/10 01:25:26;;;;;;;25.27;14.75;;;2.70;99.90;;;;;;5073869;28;20106;-78
2021/03/10 01:27:52;;;;;;;22.48;15.27;;;2.50;99.90;;;;;;5081509;28;20112;-79
2021/03/10 01:30:22;;;;;;;23.98;14.50;;;2.50;99.90;;;;;;5073994;28;20081;-79
2021/03/10 01:32:47;;;;;;;24.17;14.73;;;2.50;99.90;;;;;;5088434;28;20081;-79
2021/03/10 01:35:13;;;;;;;25.80;16.08;;;2.50;99.90;;;;;;5088696;28;20389;-80
2021/03/10 01:37:39;;;;;;;23.85;15.05;;;2.40;99.90;;;;;;5088374;28;20146;-80
2021/03/10 01:40:12;;;;;;;24.25;15.15;;;2.50;99.90;;;;;;5084900;28;20081;-81
2021/03/10 01:42:37;;;;;;;23.77;16.25;;;2.70;99.90;;;;;;5084230;28;20164;-81
2021/03/10 01:45:05;;;;;;;27.02;15.73;;;2.60;99.90;;;;;;5087758;28;20506;-81
2021/03/10 01:47:33;;;;;;;24.92;14.95;;;2.60;99.90;;;;;;5069602;28;20104;-80
2021/03/10 01:50:00;;;;;;;23.70;16.15;;;2.70;99.90;;;;;;5074539;28;20091;-81
2021/03/10 01:52:28;;;;;;;26.05;16.05;;;2.70;99.90;;;;;;5074317;28;20077;-80
2021/03/10 01:54:54;;;;;;;24.70;16.25;;;2.70;99.90;;;;;;5065306;28;20121;-80
2021/03/10 01:57:20;;;;;;;23.50;14.95;;;2.60;99.90;;;;;;5071106;28;20507;-80
2021/03/10 01:59:47;;;;;;;23.05;14.73;;;2.60;99.90;;;;;;5066541;28;20108;-81
2021/03/10 02:02:13;;;;;;;24.95;15.82;;;2.60;99.90;;;;;;5073621;28;20090;-81
2021/03/10 02:04:39;;;;;;;25.23;16.73;;;2.70;99.90;;;;;;5070073;28;20074;-82
2021/03/10 02:07:14;;;;;;;24.15;15.23;;;2.70;99.90;;;;;;5056960;28;20235;-83
2021/03/10 02:10:01;;;;;;;25.88;16.02;;;2.70;99.90;;;;;;5063093;28;20571;-80
2021/03/10 02:12:42;;;;;;;24.55;15.20;;;2.70;99.90;;;;;;5061118;28;20224;-81
2021/03/10 02:15:36;;;;;;;24.27;15.73;;;2.70;99.90;;;;;;5073807;28;20085;-82
2021/03/10 02:18:11;;;;;;;26.95;16.48;;;2.70;99.90;;;;;;5071828;28;20088;-82
2021/03/10 02:20:38;;;;;;;26.83;15.02;;;2.70;99.90;;;;;;5068144;28;20077;-80
2021/03/10 02:23:35;;;;;;;24.35;15.43;;;2.80;99.90;;;;;;5072928;28;20336;-81
2021/03/10 02:26:19;;;;;;;25.38;15.93;;;2.60;99.90;;;;;;5079887;28;20093;-82
2021/03/10 02:28:47;;;;;;;24.33;15.67;;;2.60;99.90;;;;;;5055871;28;20087;-82
2021/03/10 02:31:15;;;;;;;26.02;16.25;;;2.60;99.90;;;;;;5066763;28;20498;-82
2021/03/10 02:33:42;;;;;;;30.92;17.60;;;2.50;99.90;;;;;;5068320;28;20128;-81
2021/03/10 02:36:12;;;;;;;23.08;16.38;;;2.40;99.90;;;;;;5088185;27;20175;-81
2021/03/10 02:38:49;;;;;;;26.63;15.80;;;2.50;99.90;;;;;;5065768;28;20084;-80
2021/03/10 02:41:18;;;;;;;25.33;15.95;;;2.40;99.90;;;;;;5056081;28;20069;-80
2021/03/10 02:43:45;;;;;;;24.80;15.82;;;2.40;99.90;;;;;;5099753;28;20495;-81
2021/03/10 02:46:11;;;;;;;26.45;16.77;;;2.50;99.90;;;;;;5052705;28;20160;-81
2021/03/10 02:48:37;;;;;;;23.90;15.90;;;2.40;99.90;;;;;;5054295;28;20123;-82
2021/03/10 02:51:04;;;;;;;23.58;15.20;;;2.40;99.90;;;;;;5060062;28;20082;-81
2021/03/10 02:53:31;;;;;;;25.33;15.88;;;2.40;99.90;;;;;;5054969;28;20088;-81
2021/03/10 02:55:57;;;;;;;24.77;15.80;;;2.40;99.90;;;;;;5065972;28;20147;-82
2021/03/10 02:58:23;;;;;;;24.15;15.77;;;2.40;99.90;;;;;;5060967;28;20145;-80
2021/03/10 03:00:49;;;;;;;23.88;16.40;;;2.40;99.90;;;;;;5067396;28;20089;-80
2021/03/10 03:03:14;;;;;;;26.80;16.00;;;2.50;99.90;;;;;;5049710;28;20082;-80
2021/03/10 03:05:40;;;;;;;24.80;15.05;;;2.50;99.90;;;;;;5051854;28;20138;-81
2021/03/10 03:08:07;;;;;;;23.83;15.63;;;2.60;99.90;;;;;;5068372;28;20084;-81
2021/03/10 03:10:36;;;;;;;24.85;15.35;;;2.60;99.90;;;;;;5059830;28;20082;-81
2021/03/10 03:13:06;;;;;;;24.75;16.65;;;2.70;99.90;;;;;;5069126;28;20169;-81
2021/03/10 03:15:32;;;;;;;26.80;15.68;;;2.80;99.90;;;;;;5065979;28;20551;-80
2021/03/10 03:18:00;;;;;;;25.45;15.02;;;2.80;99.90;;;;;;5068910;28;20105;-84
2021/03/10 03:20:25;;;;;;;23.02;14.98;;;2.70;99.90;;;;;;5094255;28;20081;-81
2021/03/10 03:22:56;;;;;;;27.48;17.15;;;2.80;99.90;;;;;;5054910;28;20092;-81
2021/03/10 03:25:25;;;;;;;29.33;17.80;;;2.70;99.90;;;;;;5067854;28;20135;-82
2021/03/10 03:28:02;;;;;;;24.73;15.18;;;2.70;99.90;;;;;;5070799;28;20176;-81
2021/03/10 03:30:33;;;;;;;25.98;16.60;;;2.80;99.90;;;;;;5069440;28;20154;-82
2021/03/10 03:33:01;;;;;;;27.60;17.00;;;2.90;99.90;;;;;;5052496;28;21414;-82
2021/03/10 03:35:27;;;;;;;28.70;17.42;;;2.80;99.90;;;;;;5055505;28;20128;-80
2021/03/10 03:37:54;;;;;;;26.20;16.60;;;2.80;99.90;;;;;;5060138;28;20081;-81
2021/03/10 03:40:22;;;;;;;29.83;17.58;;;2.80;99.90;;;;;;5064371;28;20101;-82
2021/03/10 03:42:49;;;;;;;28.75;16.90;;;2.70;99.90;;;;;;5052388;28;20082;-83
2021/03/10 03:45:16;;;;;;;27.63;16.88;;;2.70;99.90;;;;;;5069459;28;20127;-81
2021/03/10 03:47:42;;;;;;;29.23;18.05;;;2.60;99.90;;;;;;5071913;28;20744;-80
2021/03/10 03:50:12;;;;;;;28.70;18.20;;;2.60;99.90;;;;;;5068159;28;20088;-80
2021/03/10 03:52:42;;;;;;;30.38;18.27;;;2.60;99.90;;;;;;5065960;28;20540;-80
2021/03/10 03:55:09;;;;;;;30.15;18.75;;;2.40;99.90;;;;;;5066617;28;20097;-80
2021/03/10 03:57:35;;;;;;;28.33;16.70;;;2.40;99.90;;;;;;5069002;28;20089;-82
2021/03/10 04:00:03;;;;;;;28.70;17.05;;;2.40;99.90;;;;;;5068693;28;20074;-80
2021/03/10 04:02:29;;;;;;;27.13;17.58;;;2.40;99.90;;;;;;5069673;28;20191;-81
2021/03/10 04:04:54;;;;;;;28.83;18.02;;;2.30;99.90;;;;;;5063034;28;20131;-83
2021/03/10 04:07:20;;;;;;;29.65;17.80;;;2.40;99.90;;;;;;5067418;28;20101;-80
2021/03/10 04:09:45;;;;;;;26.17;17.65;;;2.40;99.90;;;;;;5085854;28;20173;-79
2021/03/10 04:12:11;;;;;;;28.45;17.77;;;2.40;99.90;;;;;;5084795;28;20085;-81
2021/03/10 04:14:37;;;;;;;26.92;17.30;;;2.40;99.90;;;;;;5086852;28;20077;-82
2021/03/10 04:17:02;;;;;;;28.00;17.63;;;2.50;99.90;;;;;;5069151;28;20093;-80
2021/03/10 04:19:28;;;;;;;28.02;17.10;;;2.50;99.90;;;;;;5054261;28;20077;-80
2021/03/10 04:21:54;;;;;;;30.08;17.85;;;2.50;99.90;;;;;;5058774;28;20463;-80
2021/03/10 04:24:20;;;;;;;26.45;16.30;;;2.40;99.90;;;;;;5060107;28;20211;-81
2021/03/10 04:26:46;;;;;;;27.77;17.23;;;2.50;99.90;;;;;;5068635;28;20117;-80
2021/03/10 04:29:12;;;;;;;28.35;17.85;;;2.40;99.90;;;;;;5069015;28;20081;-80
2021/03/10 04:31:38;;;;;;;27.55;17.77;;;2.40;99.90;;;;;;5070116;28;20079;-80
2021/03/10 04:34:03;;;;;;;29.40;17.70;;;2.50;99.90;;;;;;5087367;28;20081;-81
2021/03/10 04:36:29;;;;;;;31.95;20.35;;;2.40;99.90;;;;;;5070446;28;20109;-80
2021/03/10 04:38:55;;;;;;;31.98;19.30;;;2.40;99.90;;;;;;5067962;28;20078;-80
2021/03/10 04:41:20;;;;;;;31.30;19.02;;;2.40;99.90;;;;;;5061641;28;20084;-81
2021/03/10 04:43:46;;;;;;;32.50;19.77;;;2.40;99.90;;;;;;5067202;28;20074;-81
2021/03/10 04:46:12;;;;;;;31.67;20.05;;;2.40;99.90;;;;;;5063954;28;20096;-81
2021/03/10 04:48:37;;;;;;;31.27;19.27;;;2.30;99.90;;;;;;5068938;28;20106;-80
2021/03/10 04:51:03;;;;;;;27.63;18.23;;;2.30;99.90;;;;;;5067028;28;20134;-81
2021/03/10 04:53:29;;;;;;;29.15;19.25;;;2.30;99.90;;;;;;5071148;28;20451;-80
2021/03/10 04:55:54;;;;;;;28.92;17.63;;;2.30;99.90;;;;;;5067078;28;20108;-82
2021/03/10 04:58:20;;;;;;;30.55;18.42;;;2.30;99.90;;;;;;5067576;28;20081;-82
2021/03/10 05:00:46;;;;;;;34.97;19.58;;;2.30;99.90;;;;;;5068596;28;20131;-81
2021/03/10 05:03:12;;;;;;;30.80;19.83;;;2.40;99.90;;;;;;5061516;28;20069;-83
2021/03/10 05:05:37;;;;;;;29.92;19.35;;;2.40;99.90;;;;;;5070916;28;20462;-81
2021/03/10 05:08:03;;;;;;;31.33;18.95;;;2.40;99.90;;;;;;5059424;28;20555;-81
2021/03/10 05:10:29;;;;;;;30.20;18.75;;;2.40;99.90;;;;;;5070389;28;20077;-80
2021/03/10 05:12:55;;;;;;;27.40;17.90;;;2.40;99.90;;;;;;5060461;28;20102;-81
2021/03/10 05:15:21;;;;;;;28.20;18.52;;;2.40;99.90;;;;;;5067350;28;20085;-81
2021/03/10 05:17:46;;;;;;;31.27;18.98;;;2.50;99.90;;;;;;5064802;28;20183;-81
2021/03/10 05:20:12;;;;;;;29.70;19.33;;;2.60;99.90;;;;;;5061244;28;20077;-82
2021/03/10 05:22:39;;;;;;;29.25;18.60;;;2.40;99.90;;;;;;5055316;28;20108;-81
2021/03/10 05:25:07;;;;;;;31.50;19.25;;;2.60;99.90;;;;;;5074097;28;20077;-82
2021/03/10 05:27:36;;;;;;;30.67;19.08;;;2.40;99.90;;;;;;5071996;28;20093;-82
2021/03/10 05:30:07;;;;;;;35.67;21.58;;;2.30;99.90;;;;;;5073004;28;20099;-82
2021/03/10 05:32:33;;;;;;;29.13;18.13;;;2.40;99.90;;;;;;5076468;28;20443;-82
2021/03/10 05:34:58;;;;;;;29.48;18.63;;;2.40;99.90;;;;;;5073724;28;20093;-82
2021/03/10 05:37:24;;;;;;;30.58;19.85;;;2.40;99.90;;;;;;5073801;28;20093;-83
2021/03/10 05:39:50;;;;;;;32.15;18.95;;;2.30;99.90;;;;;;5075397;28;20085;-84
2021/03/10 05:42:16;;;;;;;30.63;18.77;;;2.40;99.90;;;;;;5072021;28;20596;-85
2021/03/10 05:44:41;;;;;;;34.03;20.08;;;2.50;99.90;;;;;;5057371;28;20088;-85
2021/03/10 05:47:07;;;;;;;32.33;19.85;;;2.40;99.90;;;;;;5068945;28;20097;-84
2021/03/10 05:49:33;;;;;;;32.70;19.75;;;2.50;99.90;;;;;;5072934;28;20123;-85
2021/03/10 05:52:03;;;;;;;32.00;21.17;;;2.60;99.90;;;;;;5057501;28;20117;-85
2021/03/10 05:54:31;;;;;;;34.55;21.58;;;2.50;99.90;;;;;;5087384;28;20145;-84
2021/03/10 05:56:58;;;;;;;33.47;20.45;;;2.50;99.90;;;;;;5087730;28;20718;-84
2021/03/10 05:59:27;;;;;;;34.53;20.67;;;2.40;99.90;;;;;;5057673;28;20081;-84
2021/03/10 06:01:54;;;;;;;31.30;19.17;;;2.50;99.90;;;;;;5060027;28;20617;-84
2021/03/10 06:04:21;;;;;;;36.17;21.65;;;2.50;99.90;;;;;;5069520;28;20084;-83
2021/03/10 06:06:46;;;;;;;32.40;20.30;;;2.40;99.90;;;;;;5072550;28;20127;-84
2021/03/10 06:09:21;;;;;;;34.67;21.27;;;2.40;99.90;;;;;;5074221;28;20163;-84
2021/03/10 06:11:55;;;;;;;33.70;20.83;;;2.60;99.90;;;;;;5088832;28;20535;-84
2021/03/10 06:14:22;;;;;;;33.55;20.83;;;2.60;99.90;;;;;;5070121;28;20077;-84
2021/03/10 06:16:48;;;;;;;34.60;21.83;;;2.70;99.90;;;;;;5077686;28;20150;-84
2021/03/10 06:19:13;;;;;;;35.33;22.70;;;2.70;99.90;;;;;;5076559;28;20134;-84
2021/03/10 06:21:49;;;;;;;35.58;22.75;;;2.60;99.90;;;;;;5086887;28;20084;-84
2021/03/10 06:24:15;;;;;;;34.05;21.67;;;2.70;99.90;;;;;;5071181;28;20080;-83
2021/03/10 06:26:52;;;;;;;38.13;21.27;;;2.70;99.90;;;;;;5072343;28;20104;-83
2021/03/10 06:29:18;;;;;;;37.88;23.48;;;2.60;99.90;;;;;;5069114;28;20104;-84
2021/03/10 06:31:44;;;;;;;41.42;25.15;;;2.50;99.90;;;;;;5069128;28;20447;-83
2021/03/10 06:34:15;;;;;;;34.72;21.35;;;2.60;99.90;;;;;;5071883;28;20091;-79
2021/03/10 06:36:49;;;;;;;36.42;22.63;;;2.50;99.90;;;;;;5061455;28;20216;-79
2021/03/10 06:39:29;;;;;;;37.07;22.67;;;2.60;99.90;;;;;;5064771;28;20076;-78
2021/03/10 06:41:55;;;;;;;35.38;22.55;;;2.60;99.90;;;;;;5084830;27;20465;-79
2021/03/10 06:44:30;;;;;;;37.00;22.73;;;2.80;99.90;;;;;;5058015;28;20716;-78
2021/03/10 06:47:04;;;;;;;38.47;23.40;;;2.80;99.90;;;;;;5050236;28;20096;-78
2021/03/10 06:49:32;;;;;;;36.22;22.27;;;2.80;99.90;;;;;;5075971;28;20091;-78
2021/03/10 06:52:03;;;;;;;37.92;22.00;;;2.80;99.90;;;;;;5067857;28;20116;-78
2021/03/10 06:54:30;;;;;;;34.53;22.33;;;2.90;99.90;;;;;;5068701;28;20862;-78
2021/03/10 06:57:14;;;;;;;37.85;22.88;;;2.80;99.90;;;;;;5098589;28;20188;-78
2021/03/10 06:59:43;;;;;;;33.60;22.17;;;2.70;99.90;;;;;;5064448;28;20086;-78
2021/03/10 07:02:23;;;;;;;42.38;23.83;;;2.70;99.90;;;;;;5063254;28;20076;-80
2021/03/10 07:04:52;;;;;;;35.35;22.25;;;2.60;99.90;;;;;;5058391;28;20156;-78
2021/03/10 07:07:18;;;;;;;32.55;21.80;;;2.50;99.90;;;;;;5053221;28;20097;-79
2021/03/10 07:09:45;;;;;;;37.85;22.73;;;2.40;99.90;;;;;;5067551;28;20077;-78
2021/03/10 07:12:13;;;;;;;32.63;21.25;;;2.40;99.90;;;;;;5068289;28;20684;-79
2021/03/10 07:14:39;;;;;;;36.67;21.17;;;2.60;99.90;;;;;;5069106;28;20649;-78
2021/03/10 07:17:09;;;;;;;38.85;21.60;;;2.60;99.90;;;;;;5072839;28;20089;-79
2021/03/10 07:19:36;;;;;;;37.75;23.80;;;2.50;99.90;;;;;;5068517;28;20195;-80
2021/03/10 07:22:05;;;;;;;34.88;22.80;;;2.50;99.90;;;;;;5069235;28;20076;-79
2021/03/10 07:24:41;;;;;;;38.78;24.20;;;2.50;99.90;;;;;;5064147;28;20094;-78
2021/03/10 07:27:09;;;;;;;34.42;21.85;;;2.50;99.90;;;;;;5066259;28;20092;-78
2021/03/10 07:29:40;;;;;;;36.47;21.55;;;2.60;99.90;;;;;;5095780;28;20081;-79
2021/03/10 07:32:07;;;;;;;41.90;22.83;;;2.50;99.90;;;;;;5067429;28;20070;-79
2021/03/10 07:34:34;;;;;;;39.75;23.50;;;2.50;99.90;;;;;;5061408;28;20077;-79
2021/03/10 07:37:12;;;;;;;38.85;22.85;;;2.60;99.90;;;;;;5072501;28;20105;-79
2021/03/10 07:39:37;;;;;;;39.28;22.67;;;2.70;99.90;;;;;;5069695;28;20065;-78
2021/03/10 07:42:14;;;;;;;39.67;23.95;;;2.70;99.90;;;;;;5067874;28;20088;-79
2021/03/10 07:44:40;;;;;;;37.00;22.75;;;2.70;99.90;;;;;;5049281;28;20069;-79
2021/03/10 07:47:06;;;;;;;40.75;24.10;;;2.70;99.90;;;;;;5067360;28;20093;-79
2021/03/10 07:49:32;;;;;;;34.45;23.13;;;2.70;99.90;;;;;;5064729;28;20154;-78
2021/03/10 07:52:12;;;;;;;42.45;24.42;;;2.70;99.90;;;;;;5064554;28;20080;-78
2021/03/10 07:54:39;;;;;;;40.00;23.77;;;2.80;99.90;;;;;;5069981;28;20146;-79
2021/03/10 07:57:16;;;;;;;39.30;23.27;;;2.80;99.90;;;;;;5068729;28;20099;-78
2021/03/10 07:59:53;;;;;;;39.95;21.70;;;2.90;99.90;;;;;;5066471;28;20076;-79
2021/03/10 08:02:20;;;;;;;40.55;25.73;;;3.00;99.90;;;;;;5069448;28;20069;-79
2021/03/10 08:05:21;;;;;;;41.20;24.83;;;3.00;99.90;;;;;;5066428;28;20124;-79
2021/03/10 08:07:48;;;;;;;40.40;24.10;;;3.00;99.90;;;;;;5061842;28;20490;-79
2021/03/10 08:10:26;;;;;;;39.30;24.52;;;3.00;99.90;;;;;;5067853;28;20077;-78
2021/03/10 08:12:52;;;;;;;41.65;24.17;;;3.10;99.90;;;;;;5069230;28;20073;-78
2021/03/10 08:15:22;;;;;;;39.10;22.92;;;3.10;99.90;;;;;;5069314;28;20093;-79
2021/03/10 08:17:48;;;;;;;38.17;22.48;;;3.10;99.90;;;;;;5069280;28;20089;-79
2021/03/10 08:20:15;;;;;;;34.08;21.95;;;3.20;99.90;;;;;;5051350;28;20160;-79
2021/03/10 08:22:41;;;;;;;37.28;22.60;;;3.20;99.90;;;;;;5068799;28;20471;-79
2021/03/10 08:25:13;;;;;;;38.90;22.83;;;3.20;99.90;;;;;;5066819;28;20116;-78
2021/03/10 08:27:42;;;;;;;36.88;20.33;;;3.30;99.90;;;;;;5086259;28;20647;-79
2021/03/10 08:30:14;;;;;;;35.25;21.88;;;3.30;99.90;;;;;;5066677;28;20131;-79
2021/03/10 08:32:40;;;;;;;73.18;37.92;;;3.40;99.90;;;;;;5063194;28;20081;-79
2021/03/10 08:35:13;;;;;;;41.95;24.50;;;3.50;99.90;;;;;;5072489;28;20092;-78
2021/03/10 08:37:50;;;;;;;38.42;23.00;;;3.50;99.90;;;;;;5059329;28;20104;-79
2021/03/10 08:40:20;;;;;;;38.50;23.38;;;3.50;99.90;;;;;;5094732;28;20132;-78
2021/03/10 08:42:46;;;;;;;36.70;23.90;;;3.50;99.90;;;;;;5067150;28;20431;-78
2021/03/10 08:45:36;;;;;;;35.20;22.25;;;3.50;99.90;;;;;;5069446;28;20117;-79
2021/03/10 08:48:07;;;;;;;33.20;20.42;;;3.50;99.90;;;;;;5070312;28;20568;-79
2021/03/10 08:50:33;;;;;;;38.25;19.98;;;3.60;99.90;;;;;;5061743;28;20562;-79
2021/03/10 08:52:59;;;;;;;32.30;19.55;;;3.60;99.90;;;;;;5067412;28;20087;-80
2021/03/10 08:55:26;;;;;;;34.15;19.55;;;3.60;99.90;;;;;;5064027;28;20105;-78
2021/03/10 08:57:53;;;;;;;39.15;20.90;;;3.50;99.90;;;;;;5063069;28;20687;-78
2021/03/10 09:00:22;;;;;;;35.80;21.20;;;3.50;99.90;;;;;;5070969;28;20595;-79
2021/03/10 09:02:51;;;;;;;37.92;21.33;;;3.50;99.90;;;;;;5071023;28;20439;-78
2021/03/10 09:05:25;;;;;;;44.90;22.63;;;3.50;99.90;;;;;;5076662;28;20077;-78
2021/03/10 09:07:51;;;;;;;39.55;23.17;;;3.50;99.90;;;;;;5065667;28;20124;-78
2021/03/10 09:10:18;;;;;;;39.90;22.60;;;3.40;99.90;;;;;;5099968;27;20149;-78
2021/03/10 09:12:46;;;;;;;38.22;21.55;;;3.50;99.90;;;;;;5071227;28;20127;-78
2021/03/10 09:15:14;;;;;;;41.72;23.40;;;3.50;99.90;;;;;;5055544;28;20097;-78
2021/03/10 09:17:41;;;;;;;42.28;23.40;;;3.60;99.90;;;;;;5063153;28;20177;-78
2021/03/10 09:20:09;;;;;;;42.00;23.65;;;3.60;99.90;;;;;;5060480;28;20081;-79
2021/03/10 09:22:46;;;;;;;37.35;22.92;;;3.70;99.90;;;;;;5081016;28;20223;-79
2021/03/10 09:25:16;;;;;;;36.70;21.25;;;3.70;99.90;;;;;;5064377;28;20515;-78
2021/03/10 09:27:42;;;;;;;37.65;23.17;;;3.70;99.90;;;;;;5070360;28;20516;-77
2021/03/10 09:30:31;;;;;;;43.88;24.60;;;3.70;99.90;;;;;;5070877;28;20191;-78
2021/03/10 09:32:57;;;;;;;35.97;21.27;;;3.70;99.90;;;;;;5069348;28;20081;-77
2021/03/10 09:35:37;;;;;;;38.67;22.40;;;3.70;99.90;;;;;;5068430;28;20724;-79
2021/03/10 09:38:10;;;;;;;36.13;22.00;;;3.70;99.90;;;;;;5069983;28;20072;-79
2021/03/10 09:40:37;;;;;;;41.15;23.10;;;3.70;99.90;;;;;;5060805;28;20065;-79
2021/03/10 09:43:09;;;;;;;37.85;23.35;;;3.80;99.90;;;;;;5068004;28;20089;-79
2021/03/10 09:45:38;;;;;;;41.35;24.80;;;3.90;99.90;;;;;;5069070;28;20130;-79
2021/03/10 09:48:11;;;;;;;39.65;23.33;;;3.90;99.90;;;;;;5066595;28;20077;-79
2021/03/10 09:50:40;;;;;;;42.85;23.95;;;3.90;99.90;;;;;;5061004;28;20095;-77
2021/03/10 09:53:21;;;;;;;37.92;24.05;;;3.90;99.90;;;;;;5067233;28;20088;-77
2021/03/10 09:55:47;;;;;;;37.75;23.35;;;3.90;99.90;;;;;;5065505;28;20192;-77
2021/03/10 09:58:13;;;;;;;34.40;22.10;;;3.90;99.90;;;;;;5063625;28;20083;-77
2021/03/10 10:00:41;;;;;;;37.85;23.50;;;3.80;99.90;;;;;;5092060;27;20545;-77
2021/03/10 10:03:08;;;;;;;39.88;23.50;;;3.80;99.90;;;;;;5060748;28;20077;-78
2021/03/10 10:05:39;;;;;;;39.38;23.45;;;3.70;99.90;;;;;;5072501;28;20081;-77
2021/03/10 10:08:07;;;;;;;37.55;23.30;;;3.70;99.90;;;;;;5067071;28;20091;-77
2021/03/10 10:10:34;;;;;;;36.90;21.02;;;3.70;99.90;;;;;;5069926;28;20557;-77
2021/03/10 10:13:01;;;;;;;36.33;21.70;;;3.60;99.90;;;;;;5069190;28;20600;-77
2021/03/10 10:15:32;;;;;;;36.05;21.00;;;3.50;99.90;;;;;;5070050;28;20108;-79
2021/03/10 10:18:01;;;;;;;37.15;22.75;;;3.40;99.90;;;;;;5067893;28;20069;-79
2021/03/10 10:20:30;;;;;;;35.38;19.60;;;3.30;99.90;;;;;;5067298;28;20164;-78
2021/03/10 10:22:56;;;;;;;37.80;21.50;;;3.40;99.90;;;;;;5066271;28;20069;-77
2021/03/10 10:25:22;;;;;;;38.88;21.90;;;3.40;99.90;;;;;;5060780;28;20170;-77
2021/03/10 10:27:49;;;;;;;34.17;19.67;;;3.30;99.90;;;;;;5050544;28;20096;-77
2021/03/10 10:30:18;;;;;;;35.35;19.00;;;3.40;99.90;;;;;;5067241;28;20131;-77
2021/03/10 10:32:48;;;;;;;27.67;16.67;;;3.30;99.90;;;;;;5065839;28;20100;-77
2021/03/10 10:35:15;;;;;;;25.02;15.38;;;3.30;99.90;;;;;;5064948;28;20123;-77
2021/03/10 10:37:42;;;;;;;23.35;13.30;;;3.30;99.90;;;;;;5060498;28;20807;-78
2021/03/10 10:40:10;;;;;;;21.67;12.57;;;3.20;99.90;;;;;;5059613;28;20451;-76
2021/03/10 10:42:36;;;;;;;18.80;9.93;;;3.20;99.90;;;;;;5055297;28;20072;-78
2021/03/10 10:45:06;;;;;;;17.13;9.80;;;3.10;99.90;;;;;;5067073;28;20548;-78
2021/03/10 10:47:32;;;;;;;19.65;9.88;;;3.10;99.90;;;;;;5066445;28;20089;-78
2021/03/10 10:50:00;;;;;;;18.48;10.32;;;3.20;99.90;;;;;;5080055;28;20083;-78
2021/03/10 10:52:26;;;;;;;20.50;11.20;;;3.30;99.90;;;;;;5071520;28;20120;-78
2021/03/10 10:54:51;;;;;;;21.65;12.63;;;3.30;99.90;;;;;;5068904;28;20100;-78
2021/03/10 10:57:17;;;;;;;20.15;12.75;;;3.20;99.90;;;;;;5060646;28;20097;-77
2021/03/10 10:59:43;;;;;;;21.10;12.45;;;3.30;99.90;;;;;;5066066;28;20534;-78
2021/03/10 11:02:09;;;;;;;23.67;14.70;;;3.30;99.90;;;;;;5063957;28;20080;-77
2021/03/10 11:04:34;;;;;;;24.50;16.27;;;3.50;99.90;;;;;;5068523;28;20073;-78
2021/03/10 11:07:00;;;;;;;23.35;13.93;;;3.60;99.90;;;;;;5053933;28;20131;-77
2021/03/10 11:09:26;;;;;;;23.17;16.30;;;3.50;99.90;;;;;;5056196;28;20535;-77
2021/03/10 11:11:52;;;;;;;24.38;14.73;;;3.60;99.90;;;;;;5069139;28;20081;-76
2021/03/10 11:14:19;;;;;;;31.08;18.40;;;3.70;99.90;;;;;;5074164;28;20076;-77
2021/03/10 11:16:45;;;;;;;28.23;18.50;;;3.80;99.90;;;;;;5050085;28;20190;-77
2021/03/10 11:19:11;;;;;;;31.73;18.52;;;3.90;99.90;;;;;;5054088;28;20748;-77
2021/03/10 11:21:37;;;;;;;31.15;20.15;;;4.00;99.90;;;;;;5063281;28;20101;-79
2021/03/10 11:24:03;;;;;;;33.25;21.02;;;4.10;99.90;;;;;;5065871;28;20097;-80
2021/03/10 11:26:29;;;;;;;33.50;19.27;;;4.30;99.90;;;;;;5060254;28;20123;-79
2021/03/10 11:28:55;;;;;;;36.22;21.13;;;4.50;99.90;;;;;;5055054;28;20508;-78
2021/03/10 11:31:20;;;;;;;32.50;18.58;;;4.60;99.90;;;;;;5062117;28;20074;-79
2021/03/10 11:33:46;;;;;;;32.90;18.77;;;4.80;99.90;;;;;;5064125;28;20084;-78
2021/03/10 11:36:12;;;;;;;37.13;21.33;;;5.00;99.90;;;;;;5065603;28;20101;-79
2021/03/10 11:38:38;;;;;;;32.42;19.02;;;5.10;99.90;;;;;;5064428;28;20073;-79
2021/03/10 11:41:04;;;;;;;32.08;19.02;;;5.20;99.90;;;;;;5084198;28;20082;-79
2021/03/10 11:43:33;;;;;;;26.13;16.42;;;5.10;99.90;;;;;;5068116;28;20089;-77
2021/03/10 11:45:58;;;;;;;27.13;16.70;;;5.00;99.90;;;;;;5064089;28;20151;-77
2021/03/10 11:48:24;;;;;;;33.78;18.35;;;5.10;99.90;;;;;;5052094;28;20539;-77
2021/03/10 11:50:50;;;;;;;29.60;17.92;;;4.90;99.90;;;;;;5068338;28;20084;-77
2021/03/10 11:53:16;;;;;;;30.52;17.83;;;4.90;99.90;;;;;;5065475;28;20080;-76
2021/03/10 11:55:42;;;;;;;29.52;17.48;;;4.90;99.90;;;;;;5067017;28;20104;-77
2021/03/10 11:58:07;;;;;;;27.33;16.63;;;4.90;99.90;;;;;;5067612;28;20145;-77
2021/03/10 12:00:34;;;;;;;30.00;16.75;;;5.00;99.90;;;;;;5049774;28;20531;-77
2021/03/10 12:03:00;;;;;;;26.92;15.80;;;5.00;99.90;;;;;;5053719;28;20079;-76
2021/03/10 12:05:26;;;;;;;40.05;21.05;;;5.00;99.90;;;;;;5066599;28;20085;-77
2021/03/10 12:07:51;;;;;;;37.08;19.13;;;5.10;99.90;;;;;;5066837;28;20613;-77
2021/03/10 12:10:18;;;;;;;24.08;14.75;;;5.10;99.90;;;;;;5049512;28;20077;-76
2021/03/10 12:12:44;;;;;;;24.23;13.73;;;5.10;99.90;;;;;;5068966;28;20087;-77
2021/03/10 12:15:10;;;;;;;27.73;16.50;;;5.10;99.90;;;;;;5065630;28;20096;-77
2021/03/10 12:17:38;;;;;;;27.27;14.75;;;5.20;99.90;;;;;;5063017;28;20086;-76
2021/03/10 12:20:05;;;;;;;27.33;15.02;;;5.30;99.90;;;;;;5064047;28;20069;-78
2021/03/10 12:22:30;;;;;;;26.75;15.57;;;5.30;99.90;;;;;;5064616;28;20524;-77
2021/03/10 12:24:56;;;;;;;27.55;14.82;;;5.30;99.90;;;;;;5067743;28;20077;-77
2021/03/10 12:27:25;;;;;;;27.27;16.80;;;5.30;99.90;;;;;;5068294;28;20606;-76
2021/03/10 12:30:01;;;;;;;27.40;15.48;;;5.40;99.90;;;;;;5052194;28;20078;-76
2021/03/10 12:32:28;;;;;;;27.10;15.77;;;5.40;99.90;;;;;;5059772;28;20077;-77
2021/03/10 12:34:54;;;;;;;25.63;14.55;;;5.40;99.90;;;;;;5066654;28;20081;-78
2021/03/10 12:37:21;;;;;;;29.15;17.27;;;5.40;99.90;;;;;;5069013;28;20471;-78
2021/03/10 12:39:47;;;;;;;22.70;13.82;;;5.50;99.90;;;;;;5069030;28;20085;-79
2021/03/10 12:42:13;;;;;;;24.98;14.40;;;5.40;99.90;;;;;;5069845;28;20541;-78